Skeena-Queen Charlotte E, British Columbia

12:38 AM PDT on August 28, 2015 (GMT -0700)
Sandspit | | Change Station
CLOSE
Current Station
Airport
Location: Sandspit,
Elevation: 20 ft
Nearby Weather Stations

Elev 20 ft 53.25 °N, 131.81 °W | Updated 38 minutes ago

Mostly Cloudy
Mostly Cloudy
59 °F
Feels Like 59 °F
N
9
Wind Variable Wind from South

Today
High -- | Low -- °F
--% Chance of Precip.
Yesterday
High -- | Low -- °F
Precip. -- in
6:49 AM 8:44 PM
Waxing Gibbous, 97% visible
Pressure 29.74 in
Visibility 9.0 miles
Clouds Mostly Cloudy 24000 ft
Dew Point 55 °F
Humidity 88%
Rainfall 0.00 in
Snow Depth Not available.
UV 0 out of 12
Pollen Not available.
Air Quality Not available.
Flu Activity Not available.
METAR CYZP 280700Z AUTO 18008KT 9SM BKN240 15/13 A2974 RMK SLP071 DENSITY ALT 200FT
Pressure 29.74 in
Visibility 9.0 miles
Clouds Mostly Cloudy 24000 ft
Dew Point 55 °F
Humidity 88%
Rainfall 0.00 in
Snow Depth Not available.
UV 0 out of 12
Pollen Not available.
Air Quality Not available.
Flu Activity Not available.
METAR CYZP 280700Z AUTO 18008KT 9SM BKN240 15/13 A2974 RMK SLP071 DENSITY ALT 200FT

10-Day Weather Forecast

×

Almanac

Astronomy

Aug. 28, 2015 Rise Set
Actual Time
Civil Twilight
Nautical Twilight
Astronomical Twilight
Moon
Length of Visible Light
Length of Day
Tomorrow will be .
, % of the Moon is Illuminated

Today's Extremes

Country Highs Country Lows

Community

WunderPhotos

Upload Photos

1,850,344 photos uploaded!

WunderBlogs® & News

Nearby

Air Quality

  Air Quality AQ Index Pollutant
Not available.

Snow Depth

Station Depth Elevation

Earthquake Activity

City Distance Mag. Time & Date
Minimum magnitude displayed is 2.5.

Coastal Water Temperatures

Place Temperature

Stations

Nearby Weather Stations

Station Location Temp. Windchill Dew Point Humidity Wind Precip. Elev Updated Type